Terminal Aerodrome Forecast
Issued by NWS

Home | Current Version | Previous Version | Text Only | Print | Product List | Glossary On
Versions: 1 2 3 4 5 6 7 8 9 10 11 12 13 14 15 16 17
000
FTUS41 KPHI 212300
TAFPNE
TAF
KPNE 212327Z 2200/2224 13006KT P6SM SCT040
      TEMPO 2200/2204 -SHRA OVC025
     FM220400 VRB03KT P6SM SCT025 BKN040
     FM220800 08004KT 4SM -SHRA BR OVC025
     FM221500 09006KT P6SM BKN040=

USA.gov is the U.S. government's official web portal to all federal, state and local government web resources and services.